Heucks, Mississippi
Current Conditions -  °F | °C
As of 1:15 AM on Sunday 23 Nov 2014 (Local Time) from K1R7 Reporting Station
Overcast Overcast  
Wind Chill: 61°   Ceiling: 600
Heat Index: 61°   Visibility: 9mi
Dew Point: 59°   Wind: 7mph
Humidity: 94%   Direction: 110°ESE
Pressure: 29.88"   Gusts: NA
Location:  31.5898°N, 90.4722°W
Report Text: K1R7 230715Z AUTO 11006KT 9SM OVC006 16/15 A2988 RMK AO2
Loading
Personal Weather Stations






























Interactive Weather Map New forecast layout! Learn more

10-Day Weather Forecast

Advertisements
Track Severe Weather on mobile